sensor_id;sensor_type;location;lat;lon;timestamp;P1;durP1;ratioP1;P2;durP2;ratioP2
22780;SDS011;11557;50.884;4.322;2023-04-06T00:01:35;19.90;;;13.27;;
22780;SDS011;11557;50.884;4.322;2023-04-06T00:04:00;17.67;;;12.75;;
22780;SDS011;11557;50.884;4.322;2023-04-06T00:06:26;18.08;;;12.63;;
22780;SDS011;11557;50.884;4.322;2023-04-06T00:08:52;22.08;;;13.82;;
22780;SDS011;11557;50.884;4.322;2023-04-06T00:11:18;19.88;;;13.43;;
22780;SDS011;11557;50.884;4.322;2023-04-06T00:13:44;22.33;;;14.38;;
22780;SDS011;11557;50.884;4.322;2023-04-06T00:16:10;21.88;;;14.32;;
22780;SDS011;11557;50.884;4.322;2023-04-06T00:18:35;22.08;;;14.20;;
22780;SDS011;11557;50.884;4.322;2023-04-06T00:21:01;19.88;;;13.55;;
22780;SDS011;11557;50.884;4.322;2023-04-06T00:23:27;22.90;;;14.15;;
22780;SDS011;11557;50.884;4.322;2023-04-06T00:25:52;21.52;;;13.95;;
22780;SDS011;11557;50.884;4.322;2023-04-06T00:28:18;25.70;;;13.65;;
22780;SDS011;11557;50.884;4.322;2023-04-06T00:30:50;23.88;;;14.73;;
22780;SDS011;11557;50.884;4.322;2023-04-06T00:33:17;24.05;;;14.48;;
22780;SDS011;11557;50.884;4.322;2023-04-06T00:35:43;23.13;;;14.70;;
22780;SDS011;11557;50.884;4.322;2023-04-06T00:38:09;26.15;;;15.23;;
22780;SDS011;11557;50.884;4.322;2023-04-06T00:40:35;20.08;;;14.70;;
22780;SDS011;11557;50.884;4.322;2023-04-06T00:43:00;23.77;;;14.20;;
22780;SDS011;11557;50.884;4.322;2023-04-06T00:45:26;21.33;;;14.38;;
22780;SDS011;11557;50.884;4.322;2023-04-06T00:47:52;22.02;;;14.10;;
22780;SDS011;11557;50.884;4.322;2023-04-06T00:50:18;21.92;;;14.55;;
22780;SDS011;11557;50.884;4.322;2023-04-06T00:52:43;20.90;;;14.23;;
22780;SDS011;11557;50.884;4.322;2023-04-06T00:55:09;20.55;;;14.10;;
22780;SDS011;11557;50.884;4.322;2023-04-06T00:57:35;20.67;;;14.25;;
22780;SDS011;11557;50.884;4.322;2023-04-06T01:00:01;21.92;;;14.43;;
22780;SDS011;11557;50.884;4.322;2023-04-06T01:02:27;19.85;;;14.20;;
22780;SDS011;11557;50.884;4.322;2023-04-06T01:04:53;24.10;;;14.38;;
22780;SDS011;11557;50.884;4.322;2023-04-06T01:07:19;21.92;;;14.48;;
22780;SDS011;11557;50.884;4.322;2023-04-06T01:09:45;21.88;;;13.85;;
22780;SDS011;11557;50.884;4.322;2023-04-06T01:12:10;20.65;;;14.63;;
22780;SDS011;11557;50.884;4.322;2023-04-06T01:14:36;24.38;;;15.32;;
22780;SDS011;11557;50.884;4.322;2023-04-06T01:17:02;22.10;;;14.50;;
22780;SDS011;11557;50.884;4.322;2023-04-06T01:19:27;24.80;;;14.30;;
22780;SDS011;11557;50.884;4.322;2023-04-06T01:21:53;26.92;;;14.68;;
22780;SDS011;11557;50.884;4.322;2023-04-06T01:24:19;26.08;;;14.57;;
22780;SDS011;11557;50.884;4.322;2023-04-06T01:26:45;23.40;;;15.07;;
22780;SDS011;11557;50.884;4.322;2023-04-06T01:29:11;26.17;;;15.73;;
22780;SDS011;11557;50.884;4.322;2023-04-06T01:31:38;24.42;;;14.57;;
22780;SDS011;11557;50.884;4.322;2023-04-06T01:34:04;25.25;;;15.05;;
22780;SDS011;11557;50.884;4.322;2023-04-06T01:36:30;22.17;;;13.77;;
22780;SDS011;11557;50.884;4.322;2023-04-06T01:38:56;27.38;;;14.98;;
22780;SDS011;11557;50.884;4.322;2023-04-06T01:41:21;22.17;;;14.15;;
22780;SDS011;11557;50.884;4.322;2023-04-06T01:43:47;22.65;;;14.55;;
22780;SDS011;11557;50.884;4.322;2023-04-06T01:46:14;23.10;;;15.88;;
22780;SDS011;11557;50.884;4.322;2023-04-06T01:48:40;22.17;;;16.08;;
22780;SDS011;11557;50.884;4.322;2023-04-06T01:51:06;26.38;;;14.73;;
22780;SDS011;11557;50.884;4.322;2023-04-06T01:53:32;22.17;;;15.07;;
22780;SDS011;11557;50.884;4.322;2023-04-06T01:55:58;24.20;;;14.93;;
22780;SDS011;11557;50.884;4.322;2023-04-06T01:58:23;24.73;;;16.02;;
22780;SDS011;11557;50.884;4.322;2023-04-06T02:00:49;24.83;;;15.90;;
22780;SDS011;11557;50.884;4.322;2023-04-06T02:03:15;24.23;;;15.20;;
22780;SDS011;11557;50.884;4.322;2023-04-06T02:05:40;26.23;;;15.73;;
22780;SDS011;11557;50.884;4.322;2023-04-06T02:08:06;19.17;;;14.32;;
22780;SDS011;11557;50.884;4.322;2023-04-06T02:10:33;22.05;;;14.70;;
22780;SDS011;11557;50.884;4.322;2023-04-06T02:13:00;21.65;;;14.77;;
22780;SDS011;11557;50.884;4.322;2023-04-06T02:15:26;26.67;;;15.18;;
22780;SDS011;11557;50.884;4.322;2023-04-06T02:17:52;23.20;;;15.00;;
22780;SDS011;11557;50.884;4.322;2023-04-06T02:20:17;24.55;;;14.85;;
22780;SDS011;11557;50.884;4.322;2023-04-06T02:22:43;23.52;;;14.82;;
22780;SDS011;11557;50.884;4.322;2023-04-06T02:25:09;22.00;;;15.48;;
22780;SDS011;11557;50.884;4.322;2023-04-06T02:27:35;19.20;;;14.30;;
22780;SDS011;11557;50.884;4.322;2023-04-06T02:30:01;23.85;;;14.52;;
22780;SDS011;11557;50.884;4.322;2023-04-06T02:32:28;21.45;;;13.80;;
22780;SDS011;11557;50.884;4.322;2023-04-06T02:34:53;20.33;;;14.48;;
22780;SDS011;11557;50.884;4.322;2023-04-06T02:37:19;22.05;;;14.55;;
22780;SDS011;11557;50.884;4.322;2023-04-06T02:39:45;21.50;;;14.93;;
22780;SDS011;11557;50.884;4.322;2023-04-06T02:42:11;22.08;;;15.20;;
22780;SDS011;11557;50.884;4.322;2023-04-06T02:44:36;19.27;;;15.30;;
22780;SDS011;11557;50.884;4.322;2023-04-06T02:47:02;22.80;;;15.25;;
22780;SDS011;11557;50.884;4.322;2023-04-06T02:49:27;27.38;;;15.98;;
22780;SDS011;11557;50.884;4.322;2023-04-06T02:51:53;22.73;;;15.45;;
22780;SDS011;11557;50.884;4.322;2023-04-06T02:54:19;20.55;;;14.70;;
22780;SDS011;11557;50.884;4.322;2023-04-06T02:56:44;19.67;;;13.98;;
22780;SDS011;11557;50.884;4.322;2023-04-06T02:59:10;22.65;;;14.65;;
22780;SDS011;11557;50.884;4.322;2023-04-06T03:01:36;24.42;;;15.45;;
22780;SDS011;11557;50.884;4.322;2023-04-06T03:04:02;21.20;;;14.82;;
22780;SDS011;11557;50.884;4.322;2023-04-06T03:06:27;23.85;;;15.57;;
22780;SDS011;11557;50.884;4.322;2023-04-06T03:08:53;25.92;;;14.80;;
22780;SDS011;11557;50.884;4.322;2023-04-06T03:11:18;19.23;;;14.65;;
22780;SDS011;11557;50.884;4.322;2023-04-06T03:13:44;25.70;;;15.55;;
22780;SDS011;11557;50.884;4.322;2023-04-06T03:16:10;25.85;;;15.57;;
22780;SDS011;11557;50.884;4.322;2023-04-06T03:18:35;22.25;;;14.90;;
22780;SDS011;11557;50.884;4.322;2023-04-06T03:21:01;21.02;;;14.85;;
22780;SDS011;11557;50.884;4.322;2023-04-06T03:23:27;23.30;;;14.75;;
22780;SDS011;11557;50.884;4.322;2023-04-06T03:25:52;27.98;;;16.13;;
22780;SDS011;11557;50.884;4.322;2023-04-06T03:28:18;21.70;;;15.55;;
22780;SDS011;11557;50.884;4.322;2023-04-06T03:30:44;25.13;;;14.48;;
22780;SDS011;11557;50.884;4.322;2023-04-06T03:33:10;23.05;;;15.13;;
22780;SDS011;11557;50.884;4.322;2023-04-06T03:35:36;20.77;;;15.20;;
22780;SDS011;11557;50.884;4.322;2023-04-06T03:38:02;20.60;;;15.68;;
22780;SDS011;11557;50.884;4.322;2023-04-06T03:40:28;20.90;;;15.35;;
22780;SDS011;11557;50.884;4.322;2023-04-06T03:42:54;22.20;;;15.90;;
22780;SDS011;11557;50.884;4.322;2023-04-06T03:45:20;21.90;;;15.45;;
22780;SDS011;11557;50.884;4.322;2023-04-06T03:47:46;22.23;;;15.88;;
22780;SDS011;11557;50.884;4.322;2023-04-06T03:50:11;24.42;;;15.85;;
22780;SDS011;11557;50.884;4.322;2023-04-06T03:52:37;22.25;;;15.77;;
22780;SDS011;11557;50.884;4.322;2023-04-06T03:55:03;24.98;;;15.82;;
22780;SDS011;11557;50.884;4.322;2023-04-06T03:57:29;26.02;;;15.18;;
22780;SDS011;11557;50.884;4.322;2023-04-06T03:59:54;20.45;;;14.02;;
22780;SDS011;11557;50.884;4.322;2023-04-06T04:02:20;21.02;;;14.82;;
22780;SDS011;11557;50.884;4.322;2023-04-06T04:04:45;21.80;;;15.60;;
22780;SDS011;11557;50.884;4.322;2023-04-06T04:07:11;20.90;;;15.20;;
22780;SDS011;11557;50.884;4.322;2023-04-06T04:09:37;25.92;;;15.23;;
22780;SDS011;11557;50.884;4.322;2023-04-06T04:12:02;27.13;;;15.20;;
22780;SDS011;11557;50.884;4.322;2023-04-06T04:14:28;19.73;;;15.38;;
22780;SDS011;11557;50.884;4.322;2023-04-06T04:16:54;35.00;;;15.90;;
22780;SDS011;11557;50.884;4.322;2023-04-06T04:19:19;23.33;;;15.32;;
22780;SDS011;11557;50.884;4.322;2023-04-06T04:21:45;24.35;;;14.95;;
22780;SDS011;11557;50.884;4.322;2023-04-06T04:24:12;23.30;;;16.17;;
22780;SDS011;11557;50.884;4.322;2023-04-06T04:26:38;26.15;;;15.90;;
22780;SDS011;11557;50.884;4.322;2023-04-06T04:29:04;22.05;;;15.48;;
22780;SDS011;11557;50.884;4.322;2023-04-06T04:31:30;23.55;;;16.30;;
22780;SDS011;11557;50.884;4.322;2023-04-06T04:33:56;24.67;;;16.00;;
22780;SDS011;11557;50.884;4.322;2023-04-06T04:36:23;23.70;;;16.40;;
22780;SDS011;11557;50.884;4.322;2023-04-06T04:38:50;23.30;;;15.35;;
22780;SDS011;11557;50.884;4.322;2023-04-06T04:41:16;22.98;;;16.83;;
22780;SDS011;11557;50.884;4.322;2023-04-06T04:43:42;22.40;;;16.63;;
22780;SDS011;11557;50.884;4.322;2023-04-06T04:46:07;22.95;;;16.77;;
22780;SDS011;11557;50.884;4.322;2023-04-06T04:48:33;22.17;;;16.75;;
22780;SDS011;11557;50.884;4.322;2023-04-06T04:50:59;25.85;;;16.98;;
22780;SDS011;11557;50.884;4.322;2023-04-06T04:53:25;22.17;;;16.42;;
22780;SDS011;11557;50.884;4.322;2023-04-06T04:55:50;22.50;;;16.08;;
22780;SDS011;11557;50.884;4.322;2023-04-06T04:58:16;21.95;;;16.33;;
22780;SDS011;11557;50.884;4.322;2023-04-06T05:00:43;23.70;;;16.70;;
22780;SDS011;11557;50.884;4.322;2023-04-06T05:03:09;23.27;;;16.65;;
22780;SDS011;11557;50.884;4.322;2023-04-06T05:05:46;28.42;;;17.30;;
22780;SDS011;11557;50.884;4.322;2023-04-06T05:08:12;23.98;;;17.33;;
22780;SDS011;11557;50.884;4.322;2023-04-06T05:10:38;25.45;;;17.23;;
22780;SDS011;11557;50.884;4.322;2023-04-06T05:13:04;25.23;;;17.85;;
22780;SDS011;11557;50.884;4.322;2023-04-06T05:15:30;24.08;;;16.75;;
22780;SDS011;11557;50.884;4.322;2023-04-06T05:17:55;23.27;;;17.70;;
22780;SDS011;11557;50.884;4.322;2023-04-06T05:20:21;24.85;;;18.02;;
22780;SDS011;11557;50.884;4.322;2023-04-06T05:22:47;28.30;;;18.75;;
22780;SDS011;11557;50.884;4.322;2023-04-06T05:25:13;23.13;;;18.02;;
22780;SDS011;11557;50.884;4.322;2023-04-06T05:27:38;27.95;;;18.63;;
22780;SDS011;11557;50.884;4.322;2023-04-06T05:30:05;27.48;;;18.67;;
22780;SDS011;11557;50.884;4.322;2023-04-06T05:32:32;30.85;;;18.73;;
22780;SDS011;11557;50.884;4.322;2023-04-06T05:34:57;24.02;;;18.35;;
22780;SDS011;11557;50.884;4.322;2023-04-06T05:37:23;31.02;;;18.77;;
22780;SDS011;11557;50.884;4.322;2023-04-06T05:39:49;26.15;;;18.85;;
22780;SDS011;11557;50.884;4.322;2023-04-06T05:42:15;24.52;;;18.70;;
22780;SDS011;11557;50.884;4.322;2023-04-06T05:44:41;26.65;;;19.45;;
22780;SDS011;11557;50.884;4.322;2023-04-06T05:47:07;33.53;;;19.50;;
22780;SDS011;11557;50.884;4.322;2023-04-06T05:49:32;25.45;;;20.05;;
22780;SDS011;11557;50.884;4.322;2023-04-06T05:51:58;27.60;;;19.30;;
22780;SDS011;11557;50.884;4.322;2023-04-06T05:54:24;30.92;;;20.33;;
22780;SDS011;11557;50.884;4.322;2023-04-06T05:56:49;30.30;;;19.52;;
22780;SDS011;11557;50.884;4.322;2023-04-06T05:59:15;23.98;;;18.48;;
22780;SDS011;11557;50.884;4.322;2023-04-06T06:01:41;25.45;;;18.73;;
22780;SDS011;11557;50.884;4.322;2023-04-06T06:04:06;31.85;;;20.17;;
22780;SDS011;11557;50.884;4.322;2023-04-06T06:06:32;31.38;;;19.85;;
22780;SDS011;11557;50.884;4.322;2023-04-06T06:08:59;29.10;;;19.85;;
22780;SDS011;11557;50.884;4.322;2023-04-06T06:11:25;27.33;;;20.15;;
22780;SDS011;11557;50.884;4.322;2023-04-06T06:13:52;29.30;;;19.25;;
22780;SDS011;11557;50.884;4.322;2023-04-06T06:16:18;27.55;;;19.17;;
22780;SDS011;11557;50.884;4.322;2023-04-06T06:18:44;28.88;;;19.10;;
22780;SDS011;11557;50.884;4.322;2023-04-06T06:21:10;29.98;;;19.92;;
22780;SDS011;11557;50.884;4.322;2023-04-06T06:23:40;32.40;;;20.25;;
22780;SDS011;11557;50.884;4.322;2023-04-06T06:26:06;30.92;;;20.00;;
22780;SDS011;11557;50.884;4.322;2023-04-06T06:28:32;32.90;;;19.88;;
22780;SDS011;11557;50.884;4.322;2023-04-06T06:30:58;30.58;;;20.35;;
22780;SDS011;11557;50.884;4.322;2023-04-06T06:33:23;33.08;;;21.42;;
22780;SDS011;11557;50.884;4.322;2023-04-06T06:35:51;35.45;;;22.20;;
22780;SDS011;11557;50.884;4.322;2023-04-06T06:38:16;29.55;;;21.90;;
22780;SDS011;11557;50.884;4.322;2023-04-06T06:40:43;28.27;;;21.38;;
22780;SDS011;11557;50.884;4.322;2023-04-06T06:43:10;30.38;;;22.15;;
22780;SDS011;11557;50.884;4.322;2023-04-06T06:45:35;30.85;;;21.88;;
22780;SDS011;11557;50.884;4.322;2023-04-06T06:48:01;32.58;;;21.95;;
22780;SDS011;11557;50.884;4.322;2023-04-06T06:50:28;28.98;;;22.17;;
22780;SDS011;11557;50.884;4.322;2023-04-06T06:52:54;35.38;;;24.35;;
22780;SDS011;11557;50.884;4.322;2023-04-06T06:55:19;32.40;;;23.90;;
22780;SDS011;11557;50.884;4.322;2023-04-06T06:57:45;37.83;;;25.33;;
22780;SDS011;11557;50.884;4.322;2023-04-06T07:00:11;32.58;;;23.17;;
22780;SDS011;11557;50.884;4.322;2023-04-06T07:02:38;40.05;;;25.02;;
22780;SDS011;11557;50.884;4.322;2023-04-06T07:05:04;35.13;;;23.73;;
22780;SDS011;11557;50.884;4.322;2023-04-06T07:07:31;35.33;;;24.90;;
22780;SDS011;11557;50.884;4.322;2023-04-06T07:09:58;31.80;;;24.58;;
22780;SDS011;11557;50.884;4.322;2023-04-06T07:12:24;42.22;;;22.88;;
22780;SDS011;11557;50.884;4.322;2023-04-06T07:14:50;37.55;;;22.10;;
22780;SDS011;11557;50.884;4.322;2023-04-06T07:17:17;29.55;;;21.02;;
22780;SDS011;11557;50.884;4.322;2023-04-06T07:19:42;32.13;;;22.13;;
22780;SDS011;11557;50.884;4.322;2023-04-06T07:22:08;31.58;;;19.95;;
22780;SDS011;11557;50.884;4.322;2023-04-06T07:24:34;31.58;;;21.15;;
22780;SDS011;11557;50.884;4.322;2023-04-06T07:26:59;35.28;;;22.95;;
22780;SDS011;11557;50.884;4.322;2023-04-06T07:29:25;31.50;;;21.05;;
22780;SDS011;11557;50.884;4.322;2023-04-06T07:31:52;24.95;;;18.92;;
22780;SDS011;11557;50.884;4.322;2023-04-06T07:34:18;29.02;;;20.15;;
22780;SDS011;11557;50.884;4.322;2023-04-06T07:36:43;26.88;;;18.75;;
22780;SDS011;11557;50.884;4.322;2023-04-06T07:39:09;31.15;;;18.15;;
22780;SDS011;11557;50.884;4.322;2023-04-06T07:41:35;26.90;;;19.08;;
22780;SDS011;11557;50.884;4.322;2023-04-06T07:44:01;28.35;;;19.08;;
22780;SDS011;11557;50.884;4.322;2023-04-06T07:46:28;30.23;;;17.60;;
22780;SDS011;11557;50.884;4.322;2023-04-06T07:48:53;25.48;;;16.35;;
22780;SDS011;11557;50.884;4.322;2023-04-06T07:51:19;29.27;;;15.85;;
22780;SDS011;11557;50.884;4.322;2023-04-06T07:53:45;23.70;;;14.25;;
22780;SDS011;11557;50.884;4.322;2023-04-06T07:56:10;20.85;;;14.77;;
22780;SDS011;11557;50.884;4.322;2023-04-06T07:58:37;21.45;;;13.68;;
22780;SDS011;11557;50.884;4.322;2023-04-06T08:01:03;23.88;;;14.35;;
22780;SDS011;11557;50.884;4.322;2023-04-06T08:03:28;21.83;;;13.30;;
22780;SDS011;11557;50.884;4.322;2023-04-06T08:05:54;19.17;;;13.25;;
22780;SDS011;11557;50.884;4.322;2023-04-06T08:08:20;20.00;;;13.32;;
22780;SDS011;11557;50.884;4.322;2023-04-06T08:10:47;20.52;;;12.95;;
22780;SDS011;11557;50.884;4.322;2023-04-06T08:13:13;23.10;;;13.10;;
22780;SDS011;11557;50.884;4.322;2023-04-06T08:15:40;27.85;;;14.27;;
22780;SDS011;11557;50.884;4.322;2023-04-06T08:18:05;18.25;;;12.88;;
22780;SDS011;11557;50.884;4.322;2023-04-06T08:20:31;20.27;;;13.88;;
22780;SDS011;11557;50.884;4.322;2023-04-06T08:22:57;19.08;;;13.38;;
22780;SDS011;11557;50.884;4.322;2023-04-06T08:25:22;22.63;;;13.55;;
22780;SDS011;11557;50.884;4.322;2023-04-06T08:27:48;22.85;;;12.88;;
22780;SDS011;11557;50.884;4.322;2023-04-06T08:30:13;18.27;;;11.90;;
22780;SDS011;11557;50.884;4.322;2023-04-06T08:32:44;18.42;;;12.75;;
22780;SDS011;11557;50.884;4.322;2023-04-06T08:35:10;18.75;;;12.00;;
22780;SDS011;11557;50.884;4.322;2023-04-06T08:37:37;20.90;;;12.77;;
22780;SDS011;11557;50.884;4.322;2023-04-06T08:40:02;22.35;;;12.35;;
22780;SDS011;11557;50.884;4.322;2023-04-06T08:42:31;21.42;;;12.40;;
22780;SDS011;11557;50.884;4.322;2023-04-06T08:44:57;18.30;;;11.48;;
22780;SDS011;11557;50.884;4.322;2023-04-06T08:47:24;14.93;;;11.60;;
22780;SDS011;11557;50.884;4.322;2023-04-06T08:49:49;22.13;;;12.32;;
22780;SDS011;11557;50.884;4.322;2023-04-06T08:52:18;17.73;;;13.00;;
22780;SDS011;11557;50.884;4.322;2023-04-06T08:54:44;18.90;;;11.25;;
22780;SDS011;11557;50.884;4.322;2023-04-06T08:57:10;18.45;;;14.10;;
22780;SDS011;11557;50.884;4.322;2023-04-06T08:59:36;16.58;;;11.68;;
22780;SDS011;11557;50.884;4.322;2023-04-06T09:02:04;18.63;;;12.30;;
22780;SDS011;11557;50.884;4.322;2023-04-06T09:04:35;14.77;;;11.90;;
22780;SDS011;11557;50.884;4.322;2023-04-06T09:07:02;17.90;;;11.55;;
22780;SDS011;11557;50.884;4.322;2023-04-06T09:09:27;19.17;;;13.05;;
22780;SDS011;11557;50.884;4.322;2023-04-06T09:11:53;18.65;;;11.52;;
22780;SDS011;11557;50.884;4.322;2023-04-06T09:14:35;17.15;;;12.13;;
22780;SDS011;11557;50.884;4.322;2023-04-06T09:17:05;18.95;;;12.52;;
22780;SDS011;11557;50.884;4.322;2023-04-06T09:19:31;19.70;;;12.65;;
22780;SDS011;11557;50.884;4.322;2023-04-06T09:22:06;17.27;;;13.45;;
22780;SDS011;11557;50.884;4.322;2023-04-06T09:27:33;20.52;;;13.60;;
22780;SDS011;11557;50.884;4.322;2023-04-06T09:32:48;21.10;;;13.38;;
22780;SDS011;11557;50.884;4.322;2023-04-06T09:35:15;17.65;;;12.50;;
22780;SDS011;11557;50.884;4.322;2023-04-06T09:37:41;22.25;;;12.95;;
22780;SDS011;11557;50.884;4.322;2023-04-06T09:40:08;23.52;;;14.10;;
22780;SDS011;11557;50.884;4.322;2023-04-06T09:42:34;19.38;;;13.13;;
22780;SDS011;11557;50.884;4.322;2023-04-06T09:45:01;22.55;;;14.43;;
22780;SDS011;11557;50.884;4.322;2023-04-06T09:47:27;16.50;;;12.32;;
22780;SDS011;11557;50.884;4.322;2023-04-06T09:49:58;19.83;;;12.65;;
22780;SDS011;11557;50.884;4.322;2023-04-06T09:52:31;18.33;;;12.50;;
22780;SDS011;11557;50.884;4.322;2023-04-06T09:55:02;15.18;;;11.73;;
22780;SDS011;11557;50.884;4.322;2023-04-06T09:57:32;23.05;;;15.63;;
22780;SDS011;11557;50.884;4.322;2023-04-06T10:00:06;16.77;;;11.70;;
22780;SDS011;11557;50.884;4.322;2023-04-06T10:07:51;16.77;;;11.23;;
22780;SDS011;11557;50.884;4.322;2023-04-06T10:10:21;18.77;;;11.48;;
22780;SDS011;11557;50.884;4.322;2023-04-06T10:12:47;17.23;;;12.02;;
22780;SDS011;11557;50.884;4.322;2023-04-06T10:15:14;17.65;;;10.80;;
22780;SDS011;11557;50.884;4.322;2023-04-06T10:17:40;13.85;;;11.40;;
22780;SDS011;11557;50.884;4.322;2023-04-06T10:20:16;19.25;;;12.38;;
22780;SDS011;11557;50.884;4.322;2023-04-06T10:25:54;17.58;;;12.45;;
22780;SDS011;11557;50.884;4.322;2023-04-06T10:28:21;17.08;;;12.15;;
22780;SDS011;11557;50.884;4.322;2023-04-06T10:30:46;17.92;;;11.32;;
22780;SDS011;11557;50.884;4.322;2023-04-06T10:33:13;17.70;;;12.32;;
22780;SDS011;11557;50.884;4.322;2023-04-06T10:35:40;16.38;;;11.77;;
22780;SDS011;11557;50.884;4.322;2023-04-06T10:38:06;19.13;;;11.65;;
22780;SDS011;11557;50.884;4.322;2023-04-06T10:40:34;17.88;;;12.57;;
22780;SDS011;11557;50.884;4.322;2023-04-06T10:43:12;18.92;;;12.98;;
22780;SDS011;11557;50.884;4.322;2023-04-06T10:45:43;18.95;;;12.02;;
22780;SDS011;11557;50.884;4.322;2023-04-06T10:48:15;18.25;;;12.40;;
22780;SDS011;11557;50.884;4.322;2023-04-06T10:50:49;15.77;;;12.30;;
22780;SDS011;11557;50.884;4.322;2023-04-06T10:53:23;18.77;;;12.73;;
22780;SDS011;11557;50.884;4.322;2023-04-06T10:55:50;17.42;;;13.20;;
22780;SDS011;11557;50.884;4.322;2023-04-06T10:58:20;17.08;;;13.25;;
22780;SDS011;11557;50.884;4.322;2023-04-06T11:00:49;17.52;;;13.25;;
22780;SDS011;11557;50.884;4.322;2023-04-06T11:03:15;17.75;;;13.50;;
22780;SDS011;11557;50.884;4.322;2023-04-06T11:05:48;18.35;;;12.73;;
22780;SDS011;11557;50.884;4.322;2023-04-06T11:08:22;18.60;;;13.02;;
22780;SDS011;11557;50.884;4.322;2023-04-06T11:10:51;21.88;;;14.75;;
22780;SDS011;11557;50.884;4.322;2023-04-06T11:13:38;20.13;;;14.32;;
22780;SDS011;11557;50.884;4.322;2023-04-06T11:16:04;19.65;;;13.98;;
22780;SDS011;11557;50.884;4.322;2023-04-06T11:18:30;19.33;;;13.82;;
22780;SDS011;11557;50.884;4.322;2023-04-06T11:20:56;18.20;;;12.63;;
22780;SDS011;11557;50.884;4.322;2023-04-06T11:23:23;16.38;;;12.32;;
22780;SDS011;11557;50.884;4.322;2023-04-06T11:25:53;19.63;;;13.32;;
22780;SDS011;11557;50.884;4.322;2023-04-06T11:28:19;18.42;;;13.27;;
22780;SDS011;11557;50.884;4.322;2023-04-06T11:30:45;18.48;;;13.85;;
22780;SDS011;11557;50.884;4.322;2023-04-06T11:33:19;19.85;;;13.38;;
22780;SDS011;11557;50.884;4.322;2023-04-06T11:35:46;16.83;;;12.93;;
22780;SDS011;11557;50.884;4.322;2023-04-06T11:38:12;20.58;;;12.85;;
22780;SDS011;11557;50.884;4.322;2023-04-06T11:40:37;17.80;;;12.80;;
22780;SDS011;11557;50.884;4.322;2023-04-06T11:43:03;16.15;;;12.63;;
22780;SDS011;11557;50.884;4.322;2023-04-06T11:45:38;18.38;;;13.63;;
22780;SDS011;11557;50.884;4.322;2023-04-06T11:48:17;16.73;;;12.95;;
22780;SDS011;11557;50.884;4.322;2023-04-06T11:50:46;18.55;;;13.93;;
22780;SDS011;11557;50.884;4.322;2023-04-06T11:53:13;16.92;;;13.57;;
22780;SDS011;11557;50.884;4.322;2023-04-06T11:55:39;19.70;;;14.05;;
22780;SDS011;11557;50.884;4.322;2023-04-06T11:58:05;17.95;;;13.45;;
22780;SDS011;11557;50.884;4.322;2023-04-06T12:00:32;20.48;;;15.05;;
22780;SDS011;11557;50.884;4.322;2023-04-06T12:02:59;18.75;;;14.70;;
22780;SDS011;11557;50.884;4.322;2023-04-06T12:05:26;19.80;;;14.93;;
22780;SDS011;11557;50.884;4.322;2023-04-06T12:07:52;20.25;;;15.10;;
22780;SDS011;11557;50.884;4.322;2023-04-06T12:10:19;18.75;;;13.52;;
22780;SDS011;11557;50.884;4.322;2023-04-06T12:12:44;19.90;;;15.15;;
22780;SDS011;11557;50.884;4.322;2023-04-06T12:15:11;21.70;;;15.10;;
22780;SDS011;11557;50.884;4.322;2023-04-06T12:17:36;20.80;;;15.50;;
22780;SDS011;11557;50.884;4.322;2023-04-06T12:20:02;19.17;;;14.25;;
22780;SDS011;11557;50.884;4.322;2023-04-06T12:22:28;19.35;;;14.63;;
22780;SDS011;11557;50.884;4.322;2023-04-06T12:24:53;19.40;;;15.65;;
22780;SDS011;11557;50.884;4.322;2023-04-06T12:27:19;20.73;;;15.02;;
22780;SDS011;11557;50.884;4.322;2023-04-06T12:29:45;19.05;;;14.40;;
22780;SDS011;11557;50.884;4.322;2023-04-06T12:32:12;20.08;;;14.95;;
22780;SDS011;11557;50.884;4.322;2023-04-06T12:34:37;18.10;;;13.70;;
22780;SDS011;11557;50.884;4.322;2023-04-06T12:37:03;15.68;;;13.30;;
22780;SDS011;11557;50.884;4.322;2023-04-06T12:39:28;17.60;;;14.07;;
22780;SDS011;11557;50.884;4.322;2023-04-06T12:41:55;21.38;;;15.20;;
22780;SDS011;11557;50.884;4.322;2023-04-06T12:44:21;19.17;;;15.35;;
22780;SDS011;11557;50.884;4.322;2023-04-06T12:46:46;19.10;;;14.07;;
22780;SDS011;11557;50.884;4.322;2023-04-06T12:49:12;21.30;;;14.98;;
22780;SDS011;11557;50.884;4.322;2023-04-06T12:51:38;18.88;;;15.13;;
22780;SDS011;11557;50.884;4.322;2023-04-06T12:54:03;16.48;;;14.00;;
22780;SDS011;11557;50.884;4.322;2023-04-06T12:56:29;20.42;;;15.75;;
22780;SDS011;11557;50.884;4.322;2023-04-06T12:58:55;22.92;;;15.93;;
22780;SDS011;11557;50.884;4.322;2023-04-06T13:01:21;21.67;;;16.77;;
22780;SDS011;11557;50.884;4.322;2023-04-06T13:03:47;21.88;;;15.63;;
22780;SDS011;11557;50.884;4.322;2023-04-06T13:06:12;19.73;;;15.95;;
22780;SDS011;11557;50.884;4.322;2023-04-06T13:08:39;20.15;;;16.20;;
22780;SDS011;11557;50.884;4.322;2023-04-06T13:11:05;20.40;;;16.17;;
22780;SDS011;11557;50.884;4.322;2023-04-06T13:13:33;21.38;;;17.00;;
22780;SDS011;11557;50.884;4.322;2023-04-06T13:16:01;20.20;;;16.33;;
22780;SDS011;11557;50.884;4.322;2023-04-06T13:18:28;22.48;;;16.45;;
22780;SDS011;11557;50.884;4.322;2023-04-06T13:20:55;19.35;;;15.43;;
22780;SDS011;11557;50.884;4.322;2023-04-06T13:23:21;23.38;;;16.17;;
22780;SDS011;11557;50.884;4.322;2023-04-06T13:26:03;23.45;;;17.25;;
22780;SDS011;11557;50.884;4.322;2023-04-06T13:28:30;24.73;;;16.77;;
22780;SDS011;11557;50.884;4.322;2023-04-06T13:30:58;19.30;;;16.25;;
22780;SDS011;11557;50.884;4.322;2023-04-06T13:33:25;23.25;;;16.48;;
22780;SDS011;11557;50.884;4.322;2023-04-06T13:35:51;20.40;;;16.95;;
22780;SDS011;11557;50.884;4.322;2023-04-06T13:38:16;24.20;;;17.27;;
22780;SDS011;11557;50.884;4.322;2023-04-06T13:40:42;25.02;;;17.70;;
22780;SDS011;11557;50.884;4.322;2023-04-06T13:43:09;21.77;;;17.25;;
22780;SDS011;11557;50.884;4.322;2023-04-06T13:45:35;28.10;;;18.73;;
22780;SDS011;11557;50.884;4.322;2023-04-06T13:48:00;22.65;;;18.50;;
22780;SDS011;11557;50.884;4.322;2023-04-06T13:50:26;22.45;;;17.48;;
22780;SDS011;11557;50.884;4.322;2023-04-06T13:52:52;24.67;;;17.63;;
22780;SDS011;11557;50.884;4.322;2023-04-06T13:55:18;20.23;;;17.05;;
22780;SDS011;11557;50.884;4.322;2023-04-06T13:57:43;22.27;;;17.30;;
22780;SDS011;11557;50.884;4.322;2023-04-06T14:00:09;22.08;;;16.75;;
22780;SDS011;11557;50.884;4.322;2023-04-06T14:02:37;20.95;;;17.27;;
22780;SDS011;11557;50.884;4.322;2023-04-06T14:05:04;22.05;;;17.63;;
22780;SDS011;11557;50.884;4.322;2023-04-06T14:07:30;28.13;;;18.50;;
22780;SDS011;11557;50.884;4.322;2023-04-06T14:09:55;22.00;;;17.90;;
22780;SDS011;11557;50.884;4.322;2023-04-06T14:12:21;21.42;;;17.05;;
22780;SDS011;11557;50.884;4.322;2023-04-06T14:14:47;24.35;;;17.83;;
22780;SDS011;11557;50.884;4.322;2023-04-06T14:17:12;23.15;;;18.73;;
22780;SDS011;11557;50.884;4.322;2023-04-06T14:19:38;21.02;;;18.08;;
22780;SDS011;11557;50.884;4.322;2023-04-06T14:22:03;23.20;;;19.27;;
22780;SDS011;11557;50.884;4.322;2023-04-06T14:24:29;23.83;;;18.75;;
22780;SDS011;11557;50.884;4.322;2023-04-06T14:26:55;22.00;;;18.75;;
22780;SDS011;11557;50.884;4.322;2023-04-06T14:29:21;23.35;;;18.55;;
22780;SDS011;11557;50.884;4.322;2023-04-06T14:31:47;25.15;;;20.35;;